createdAt,value
2018-07-20T00:01:33.109Z,2.83
2018-07-20T00:04:02.249Z,2.67
2018-07-20T00:06:29.868Z,2.90
2018-07-20T00:08:57.397Z,3.07
2018-07-20T00:11:24.861Z,3.37
2018-07-20T00:13:52.449Z,2.67
2018-07-20T00:16:22.169Z,2.70
2018-07-20T00:21:39.646Z,2.37
2018-07-20T00:24:07.113Z,2.73
2018-07-20T00:26:34.510Z,2.93
2018-07-20T00:29:01.721Z,2.63
2018-07-20T00:31:28.958Z,3.40
2018-07-20T00:33:56.286Z,2.53
2018-07-20T00:36:25.374Z,2.90
2018-07-20T00:38:53.116Z,2.63
2018-07-20T00:41:20.829Z,2.53
2018-07-20T00:43:48.306Z,2.70
2018-07-20T00:46:15.931Z,2.77
2018-07-20T00:48:43.518Z,2.87
2018-07-20T00:51:11.644Z,2.57
2018-07-20T00:53:39.255Z,2.87
2018-07-20T00:56:06.990Z,2.87
2018-07-20T00:58:34.286Z,3.13
2018-07-20T01:01:01.614Z,3.20
2018-07-20T01:03:28.905Z,3.23
2018-07-20T01:05:56.585Z,2.67
2018-07-20T01:08:24.159Z,3.23
2018-07-20T01:10:51.904Z,2.90
2018-07-20T01:13:19.583Z,3.37
2018-07-20T01:15:47.400Z,3.10
2018-07-20T01:18:14.859Z,3.20
2018-07-20T01:20:42.114Z,3.13
2018-07-20T01:23:09.401Z,2.60
2018-07-20T01:25:36.634Z,2.97
2018-07-20T01:28:03.845Z,2.80
2018-07-20T01:30:31.748Z,2.83
2018-07-20T01:32:59.353Z,2.97
2018-07-20T01:35:26.871Z,3.43
2018-07-20T01:37:54.454Z,3.13
2018-07-20T01:40:21.763Z,3.03
2018-07-20T01:42:49.056Z,3.47
2018-07-20T01:45:16.346Z,3.33
2018-07-20T01:47:43.727Z,2.53
2018-07-20T01:50:12.107Z,2.87
2018-07-20T01:52:39.794Z,2.53
2018-07-20T01:55:07.402Z,3.10
2018-07-20T01:57:34.930Z,2.70
2018-07-20T02:00:02.667Z,3.60
2018-07-20T02:02:30.078Z,3.00
2018-07-20T02:04:57.347Z,2.90
2018-07-20T02:07:24.742Z,2.80
2018-07-20T02:10:01.614Z,3.33
2018-07-20T02:12:28.904Z,3.33
2018-07-20T02:14:56.252Z,3.00
2018-07-20T02:17:23.549Z,3.33
2018-07-20T02:19:50.787Z,3.07
2018-07-20T02:22:18.088Z,3.53
2018-07-20T02:24:45.490Z,3.47
2018-07-20T02:27:13.624Z,3.57
2018-07-20T02:29:41.193Z,2.77
2018-07-20T02:32:08.749Z,3.10
2018-07-20T02:34:36.202Z,3.20
2018-07-20T02:37:03.574Z,2.87
2018-07-20T02:39:30.822Z,3.37
2018-07-20T02:41:58.078Z,3.00
2018-07-20T02:44:25.343Z,3.37
2018-07-20T02:46:52.639Z,3.20
2018-07-20T02:49:20.970Z,3.23
2018-07-20T02:51:48.374Z,3.07
2018-07-20T02:54:18.086Z,3.17
2018-07-20T02:56:45.370Z,3.07
2018-07-20T02:59:12.653Z,2.93
2018-07-20T03:01:40.227Z,3.10
2018-07-20T03:04:07.533Z,3.47
2018-07-20T03:06:34.875Z,3.40
2018-07-20T03:09:02.276Z,2.77
2018-07-20T03:11:29.569Z,2.67
2018-07-20T03:13:57.917Z,3.83
2018-07-20T03:16:25.383Z,2.80
2018-07-20T03:18:53.987Z,3.50
2018-07-20T03:21:23.899Z,3.30
2018-07-20T03:23:52.621Z,3.73
2018-07-20T03:26:20.921Z,3.90
2018-07-20T03:28:48.596Z,3.50
2018-07-20T03:31:16.373Z,3.33
2018-07-20T03:33:43.740Z,3.30
2018-07-20T03:36:11.041Z,3.90
2018-07-20T03:38:38.910Z,3.23
2018-07-20T03:41:06.720Z,3.50
2018-07-20T03:43:34.071Z,3.23
2018-07-20T03:46:01.492Z,3.30
2018-07-20T03:48:29.048Z,3.37
2018-07-20T03:50:56.844Z,3.50
2018-07-20T03:53:24.421Z,3.37
2018-07-20T03:55:51.740Z,3.03
2018-07-20T03:58:19.475Z,3.17
2018-07-20T04:00:49.143Z,3.63
2018-07-20T04:03:18.069Z,3.60
2018-07-20T04:05:47.434Z,3.70
2018-07-20T04:08:14.991Z,3.10
2018-07-20T04:10:43.007Z,3.40
2018-07-20T04:13:11.841Z,3.40
2018-07-20T04:15:39.270Z,2.87
2018-07-20T04:18:07.374Z,3.17
2018-07-20T04:20:34.831Z,2.70
2018-07-20T04:23:02.307Z,3.00
2018-07-20T04:25:30.338Z,2.87
2018-07-20T04:27:57.654Z,3.37
2018-07-20T04:30:24.988Z,3.60
2018-07-20T04:32:52.363Z,3.77
2018-07-20T04:35:20.705Z,3.23
2018-07-20T04:37:48.063Z,3.10
2018-07-20T04:40:15.573Z,3.43
2018-07-20T04:42:42.919Z,2.70
2018-07-20T04:45:10.443Z,2.93
2018-07-20T04:47:37.860Z,3.13
2018-07-20T04:52:39.503Z,3.37
2018-07-20T04:55:06.907Z,3.10
2018-07-20T04:57:35.033Z,2.90
2018-07-20T05:00:02.442Z,2.97
2018-07-20T05:02:30.078Z,3.43
2018-07-20T05:04:58.237Z,2.93
2018-07-20T05:07:26.017Z,3.07
2018-07-20T05:09:53.583Z,2.90
2018-07-20T05:12:22.948Z,3.13
2018-07-20T05:14:50.733Z,3.00
2018-07-20T05:17:21.093Z,2.30
2018-07-20T05:19:49.138Z,2.50
2018-07-20T05:22:16.501Z,3.10
2018-07-20T05:24:43.878Z,2.63
2018-07-20T05:27:11.787Z,2.70
2018-07-20T05:29:39.438Z,3.70
2018-07-20T05:32:07.218Z,2.77
2018-07-20T05:34:35.001Z,2.80
2018-07-20T05:37:02.981Z,3.43
2018-07-20T05:39:31.142Z,3.53
2018-07-20T05:41:58.462Z,2.60
2018-07-20T05:44:25.829Z,2.40
2018-07-20T05:46:53.757Z,3.33
2018-07-20T05:49:21.420Z,3.00
2018-07-20T05:51:49.506Z,3.17
2018-07-20T05:54:17.218Z,4.40
2018-07-20T05:56:45.016Z,4.20
2018-07-20T05:59:12.580Z,3.80
2018-07-20T06:01:40.072Z,3.83
2018-07-20T06:04:07.453Z,3.43
2018-07-20T06:06:34.736Z,2.90
2018-07-20T06:09:02.072Z,3.53
2018-07-20T06:11:30.035Z,3.00
2018-07-20T06:13:57.987Z,3.00
2018-07-20T06:16:25.655Z,3.40
2018-07-20T06:18:53.046Z,3.97
2018-07-20T06:21:20.462Z,3.60
2018-07-20T06:23:47.910Z,3.20
2018-07-20T06:26:16.122Z,3.53
2018-07-20T06:28:43.836Z,3.37
2018-07-20T06:31:11.517Z,3.47
2018-07-20T06:33:39.225Z,3.17
2018-07-20T06:36:06.679Z,3.37
2018-07-20T06:38:34.026Z,3.60
2018-07-20T06:41:01.625Z,4.07
2018-07-20T06:43:29.549Z,3.20
2018-07-20T06:45:57.500Z,3.40
2018-07-20T06:48:25.637Z,3.10
2018-07-20T06:51:02.559Z,4.12
2018-07-20T06:53:39.031Z,3.65
2018-07-20T06:56:06.409Z,3.60
2018-07-20T06:58:33.806Z,3.30
2018-07-20T07:01:01.146Z,4.00
2018-07-20T07:03:28.455Z,3.25
2018-07-20T07:05:56.382Z,4.00
2018-07-20T07:08:24.722Z,3.47
2018-07-20T07:10:52.451Z,4.12
2018-07-20T07:13:21.438Z,3.45
2018-07-20T07:15:48.806Z,3.45
2018-07-20T07:18:16.115Z,3.55
2018-07-20T07:20:43.486Z,3.98
2018-07-20T07:23:11.155Z,3.33
2018-07-20T07:25:38.835Z,3.98
2018-07-20T07:28:06.197Z,3.52
2018-07-20T07:30:33.555Z,3.25
2018-07-20T07:33:00.900Z,3.80
2018-07-20T07:35:28.243Z,3.52
2018-07-20T07:37:56.015Z,3.75
2018-07-20T07:40:23.492Z,3.35
2018-07-20T07:42:52.002Z,3.22
2018-07-20T07:45:19.921Z,3.37
2018-07-20T07:47:47.323Z,3.72
2018-07-20T07:50:14.681Z,4.08
2018-07-20T07:52:42.381Z,3.30
2018-07-20T07:55:09.706Z,3.60
2018-07-20T07:57:37.022Z,3.08
2018-07-20T08:00:04.878Z,4.17
2018-07-20T08:02:32.212Z,3.35
2018-07-20T08:05:00.051Z,3.30
2018-07-20T08:07:27.327Z,3.22
2018-07-20T08:09:54.784Z,3.35
2018-07-20T08:12:22.037Z,3.98
2018-07-20T08:14:49.343Z,3.60
2018-07-20T08:17:16.668Z,3.80
2018-07-20T08:19:44.321Z,3.42
2018-07-20T08:22:11.616Z,3.75
2018-07-20T08:24:38.965Z,3.12
2018-07-20T08:27:06.375Z,3.62
2018-07-20T08:29:33.616Z,3.70
2018-07-20T08:32:01.492Z,4.30
2018-07-20T08:34:29.509Z,3.65
2018-07-20T08:36:57.082Z,3.62
2018-07-20T08:39:25.011Z,3.40
2018-07-20T08:41:52.352Z,3.12
2018-07-20T08:44:21.918Z,3.83
2018-07-20T08:46:49.355Z,3.77
2018-07-20T08:49:16.699Z,3.50
2018-07-20T08:51:44.008Z,3.90
2018-07-20T08:54:11.345Z,3.50
2018-07-20T08:56:38.707Z,4.08
2018-07-20T08:59:06.340Z,3.20
2018-07-20T09:01:33.620Z,3.50
2018-07-20T09:04:00.941Z,3.83
2018-07-20T09:06:28.465Z,3.22
2018-07-20T09:08:56.516Z,3.25
2018-07-20T09:11:23.878Z,3.90
2018-07-20T09:13:51.344Z,3.55
2018-07-20T09:16:19.352Z,3.40
2018-07-20T09:18:47.052Z,3.65
2018-07-20T09:21:14.746Z,3.77
2018-07-20T09:23:42.039Z,3.27
2018-07-20T09:26:09.754Z,3.10
2018-07-20T09:28:37.477Z,3.12
2018-07-20T09:31:04.859Z,2.90
2018-07-20T09:33:32.178Z,2.92
2018-07-20T09:35:59.494Z,3.02
2018-07-20T09:38:28.026Z,3.08
2018-07-20T09:40:56.158Z,2.70
2018-07-20T09:43:23.651Z,2.70
2018-07-20T09:45:51.557Z,2.80
2018-07-20T09:48:20.020Z,3.02
2018-07-20T09:50:47.547Z,3.58
2018-07-20T09:53:15.056Z,2.85
2018-07-20T09:55:42.480Z,2.67
2018-07-20T09:58:10.015Z,3.00
2018-07-20T10:00:42.100Z,2.55
2018-07-20T10:03:09.554Z,2.80
2018-07-20T10:05:37.976Z,3.58
2018-07-20T10:08:05.516Z,2.90
2018-07-20T10:10:33.636Z,2.87
2018-07-20T10:13:01.640Z,2.90
2018-07-20T10:15:29.006Z,3.12
2018-07-20T10:17:57.093Z,3.02
2018-07-20T10:20:24.426Z,3.15
2018-07-20T10:22:52.361Z,3.22
2018-07-20T10:25:20.323Z,3.10
2018-07-20T10:27:47.648Z,3.25
2018-07-20T10:30:15.595Z,3.12
2018-07-20T10:32:43.048Z,2.85
2018-07-20T10:35:10.517Z,3.00
2018-07-20T10:37:37.891Z,2.87
2018-07-20T10:40:05.368Z,2.85
2018-07-20T10:42:32.668Z,3.47
2018-07-20T10:45:00.019Z,2.50
2018-07-20T10:47:33.970Z,2.72
2018-07-20T10:50:01.466Z,2.95
2018-07-20T10:52:28.913Z,2.80
2018-07-20T10:54:56.258Z,3.12
2018-07-20T10:57:24.362Z,2.95
2018-07-20T10:59:51.767Z,2.87
2018-07-20T11:02:19.745Z,3.10
2018-07-20T11:04:47.664Z,3.00
2018-07-20T11:07:15.027Z,2.95
2018-07-20T11:09:42.722Z,2.98
2018-07-20T11:12:10.073Z,3.47
2018-07-20T11:14:37.350Z,2.52
2018-07-20T11:17:04.920Z,2.65
2018-07-20T11:19:32.269Z,2.87
2018-07-20T11:22:00.124Z,2.98
2018-07-20T11:24:28.301Z,3.22
2018-07-20T11:26:55.681Z,3.10
2018-07-20T11:29:23.006Z,2.70
2018-07-20T11:31:50.338Z,3.30
2018-07-20T11:34:17.669Z,2.72
2018-07-20T11:36:45.020Z,3.00
2018-07-20T11:39:12.395Z,3.05
2018-07-20T11:41:39.811Z,3.20
2018-07-20T11:44:07.480Z,3.00
2018-07-20T11:46:34.866Z,3.08
2018-07-20T11:49:02.194Z,3.08
2018-07-20T11:51:29.542Z,3.27
2018-07-20T11:53:56.940Z,3.35
2018-07-20T11:56:24.479Z,3.35
2018-07-20T11:58:51.796Z,3.62
2018-07-20T12:01:19.896Z,3.02
2018-07-20T12:03:49.203Z,3.55
2018-07-20T12:06:16.613Z,3.00
2018-07-20T12:08:43.977Z,2.92
2018-07-20T12:11:11.592Z,2.95
2018-07-20T12:13:38.978Z,3.25
2018-07-20T12:16:06.478Z,3.27
2018-07-20T12:18:33.855Z,3.27
2018-07-20T12:21:01.763Z,3.42
2018-07-20T12:23:29.124Z,2.75
2018-07-20T12:25:57.562Z,3.02
2018-07-20T12:28:24.903Z,2.90
2018-07-20T12:30:52.781Z,2.62
2018-07-20T12:33:20.227Z,2.87
2018-07-20T12:35:47.545Z,3.40
2018-07-20T12:38:14.874Z,3.30
2018-07-20T12:40:42.239Z,2.98
2018-07-20T12:43:09.600Z,3.20
2018-07-20T12:45:36.956Z,2.92
2018-07-20T12:48:04.437Z,3.20
2018-07-20T12:50:31.817Z,2.55
2018-07-20T12:53:00.228Z,2.98
2018-07-20T12:55:27.921Z,2.90
2018-07-20T12:57:55.273Z,3.15
2018-07-20T13:00:34.269Z,3.33
2018-07-20T13:03:13.093Z,3.37
2018-07-20T13:05:55.714Z,2.92
2018-07-20T13:08:26.454Z,2.67
2018-07-20T13:10:59.268Z,3.05
2018-07-20T13:13:28.339Z,3.60
2018-07-20T13:16:02.235Z,3.10
2018-07-20T13:18:35.231Z,2.62
2018-07-20T13:21:07.142Z,2.75
2018-07-20T13:23:42.507Z,3.02
2018-07-20T13:26:20.024Z,3.85
2018-07-20T13:28:49.790Z,3.40
2018-07-20T13:31:17.341Z,3.05
2018-07-20T13:33:44.710Z,3.20
2018-07-20T13:36:12.019Z,3.35
2018-07-20T13:38:39.444Z,3.10
2018-07-20T13:41:06.799Z,2.95
2018-07-20T13:43:34.124Z,3.12
2018-07-20T13:46:01.616Z,3.15
2018-07-20T13:48:29.009Z,3.00
2018-07-20T13:51:04.027Z,3.05
2018-07-20T13:53:31.880Z,3.27
2018-07-20T13:55:59.412Z,3.00
2018-07-20T13:58:27.257Z,3.17
2018-07-20T14:00:55.855Z,3.10
2018-07-20T14:03:23.679Z,3.08
2018-07-20T14:05:51.494Z,3.35
2018-07-20T14:08:20.136Z,2.92
2018-07-20T14:10:47.536Z,3.22
2018-07-20T14:13:14.882Z,3.02
2018-07-20T14:15:42.831Z,3.33
2018-07-20T14:18:11.001Z,3.35
2018-07-20T14:20:38.763Z,3.45
2018-07-20T14:23:06.920Z,3.15
2018-07-20T14:25:34.210Z,2.85
2018-07-20T14:28:01.524Z,2.83
2018-07-20T14:30:28.906Z,3.33
2018-07-20T14:32:56.312Z,3.27
2018-07-20T14:35:23.627Z,3.37
2018-07-20T14:38:13.770Z,2.92
2018-07-20T14:40:41.146Z,3.12
2018-07-20T14:43:08.451Z,3.27
2018-07-20T14:45:35.817Z,3.67
2018-07-20T14:48:03.958Z,3.40
2018-07-20T14:50:31.371Z,3.62
2018-07-20T14:52:58.911Z,3.37
2018-07-20T14:55:26.811Z,3.45
2018-07-20T14:57:54.320Z,3.45
2018-07-20T15:00:21.709Z,3.65
2018-07-20T15:02:49.465Z,3.20
2018-07-20T15:05:16.860Z,2.92
2018-07-20T15:07:44.234Z,3.22
2018-07-20T15:10:11.782Z,3.33
2018-07-20T15:12:39.363Z,3.65
2018-07-20T15:15:07.689Z,3.30
2018-07-20T15:17:37.360Z,3.05
2018-07-20T15:20:06.903Z,3.22
2018-07-20T15:22:34.754Z,3.05
2018-07-20T15:25:02.852Z,3.40
2018-07-20T15:27:30.712Z,2.92
2018-07-20T15:29:58.749Z,3.37
2018-07-20T15:32:26.057Z,3.30
2018-07-20T15:34:55.578Z,2.83
2018-07-20T15:37:23.043Z,3.25
2018-07-20T15:39:50.336Z,3.58
2018-07-20T15:42:17.691Z,3.58
2018-07-20T15:44:45.084Z,3.35
2018-07-20T15:47:12.584Z,3.62
2018-07-20T15:49:40.003Z,3.95
2018-07-20T15:54:35.664Z,3.33
2018-07-20T15:57:03.227Z,3.08
2018-07-20T15:59:30.821Z,3.42
2018-07-20T16:01:58.359Z,3.62
2018-07-20T16:04:25.812Z,3.10
2018-07-20T16:06:53.243Z,3.70
2018-07-20T16:09:22.778Z,3.15
2018-07-20T16:11:50.257Z,3.55
2018-07-20T16:14:17.558Z,3.40
2018-07-20T16:16:45.448Z,3.90
2018-07-20T16:19:12.936Z,3.20
2018-07-20T16:21:40.244Z,4.00
2018-07-20T16:24:08.180Z,3.87
2018-07-20T16:26:35.556Z,3.33
2018-07-20T16:29:02.864Z,4.03
2018-07-20T16:31:30.194Z,3.65
2018-07-20T16:33:57.490Z,3.58
2018-07-20T16:36:24.854Z,3.65
2018-07-20T16:38:52.191Z,4.37
2018-07-20T16:41:23.043Z,2.90
2018-07-20T16:43:50.426Z,4.37
2018-07-20T16:46:17.901Z,5.22
2018-07-20T16:48:45.862Z,4.03
2018-07-20T16:51:13.548Z,3.42
2018-07-20T16:53:41.061Z,3.52
2018-07-20T16:56:09.154Z,3.15
2018-07-20T16:58:36.513Z,3.27
2018-07-20T17:01:04.032Z,3.00
2018-07-20T17:03:31.713Z,3.47
2018-07-20T17:06:00.068Z,3.17
2018-07-20T17:08:28.581Z,3.08
2018-07-20T17:10:56.685Z,3.25
2018-07-20T17:13:25.116Z,6.12
2018-07-20T17:15:52.633Z,3.92
2018-07-20T17:18:20.021Z,2.83
2018-07-20T17:20:47.360Z,3.25
2018-07-20T17:23:14.744Z,3.30
2018-07-20T17:25:42.073Z,3.77
2018-07-20T17:28:09.414Z,3.40
2018-07-20T17:30:36.751Z,4.22
2018-07-20T17:33:04.903Z,3.70
2018-07-20T17:35:32.691Z,3.67
2018-07-20T17:38:00.050Z,3.27
2018-07-20T17:40:27.411Z,3.55
2018-07-20T17:42:55.856Z,3.33
2018-07-20T17:45:23.161Z,2.75
2018-07-20T17:47:50.480Z,3.27
2018-07-20T17:50:18.247Z,4.50
2018-07-20T17:52:46.317Z,4.75
2018-07-20T17:55:13.919Z,4.35
2018-07-20T17:57:41.620Z,4.10
2018-07-20T18:00:09.135Z,2.92
2018-07-20T18:02:36.666Z,3.80
2018-07-20T18:05:04.275Z,3.77
2018-07-20T18:07:31.937Z,3.42
2018-07-20T18:09:59.283Z,5.80
2018-07-20T18:12:27.360Z,4.83
2018-07-20T18:14:55.437Z,5.55
2018-07-20T18:17:22.759Z,5.28
2018-07-20T18:19:50.068Z,4.90
2018-07-20T18:22:17.441Z,5.28
2018-07-20T18:24:44.736Z,4.40
2018-07-20T18:27:12.178Z,4.10
2018-07-20T18:29:39.637Z,3.25
2018-07-20T18:32:06.998Z,3.33
2018-07-20T18:34:36.033Z,3.35
2018-07-20T18:37:05.334Z,3.58
2018-07-20T18:39:32.681Z,3.50
2018-07-20T18:42:00.107Z,3.67
2018-07-20T18:44:29.050Z,3.62
2018-07-20T18:46:56.591Z,3.72
2018-07-20T18:49:23.874Z,3.15
2018-07-20T18:51:51.200Z,3.40
2018-07-20T18:54:19.987Z,3.47
2018-07-20T18:56:47.237Z,3.00
2018-07-20T18:59:14.467Z,3.27
2018-07-20T19:01:41.807Z,4.30
2018-07-20T19:04:09.122Z,3.50
2018-07-20T19:06:36.460Z,3.05
2018-07-20T19:09:06.094Z,3.22
2018-07-20T19:11:34.448Z,3.40
2018-07-20T19:14:02.046Z,3.67
2018-07-20T19:16:30.038Z,3.52
2018-07-20T19:18:58.205Z,3.65
2018-07-20T19:21:26.570Z,3.52
2018-07-20T19:23:54.125Z,4.80
2018-07-20T19:26:22.196Z,3.55
2018-07-20T19:28:50.858Z,3.60
2018-07-20T19:31:20.722Z,4.00
2018-07-20T19:33:49.901Z,3.90
2018-07-20T19:36:18.977Z,3.25
2018-07-20T19:38:47.070Z,3.50
2018-07-20T19:41:14.487Z,3.53
2018-07-20T19:43:41.898Z,3.43
2018-07-20T19:46:09.903Z,4.12
2018-07-20T19:48:37.366Z,4.17
2018-07-20T19:51:05.309Z,4.43
2018-07-20T19:53:33.652Z,3.77
2018-07-20T19:56:02.161Z,3.97
2018-07-20T19:58:30.312Z,4.07
2018-07-20T20:00:57.889Z,3.90
2018-07-20T20:03:28.959Z,4.40
2018-07-20T20:05:56.980Z,4.33
2018-07-20T20:08:24.720Z,4.60
2018-07-20T20:10:52.672Z,4.00
2018-07-20T20:13:20.167Z,4.10
2018-07-20T20:15:47.904Z,3.97
2018-07-20T20:18:26.679Z,4.00
2018-07-20T20:21:02.922Z,3.23
2018-07-20T20:23:39.481Z,3.90
2018-07-20T20:26:07.755Z,4.10
2018-07-20T20:28:35.533Z,4.47
2018-07-20T20:31:03.937Z,3.77
2018-07-20T20:33:31.708Z,4.07
2018-07-20T20:35:59.283Z,4.00
2018-07-20T20:38:26.769Z,3.73
2018-07-20T20:40:54.388Z,3.63
2018-07-20T20:43:21.817Z,4.20
2018-07-20T20:45:49.216Z,4.33
2018-07-20T20:48:16.589Z,4.63
2018-07-20T20:50:44.374Z,4.00
2018-07-20T20:53:12.559Z,3.73
2018-07-20T20:55:40.874Z,4.30
2018-07-20T20:58:08.252Z,4.60
2018-07-20T21:00:35.686Z,3.93
2018-07-20T21:03:03.127Z,4.30
2018-07-20T21:05:30.393Z,4.40
2018-07-20T21:07:57.681Z,4.43
2018-07-20T21:10:25.010Z,4.00
2018-07-20T21:12:52.359Z,4.60
2018-07-20T21:15:19.649Z,3.67
2018-07-20T21:17:46.929Z,4.07
2018-07-20T21:20:14.219Z,4.10
2018-07-20T21:22:41.521Z,4.70
2018-07-20T21:25:08.781Z,4.50
2018-07-20T21:27:36.006Z,4.50
2018-07-20T21:30:04.154Z,4.53
2018-07-20T21:32:31.462Z,4.63
2018-07-20T21:34:59.102Z,4.63
2018-07-20T21:37:26.469Z,4.20
2018-07-20T21:39:53.859Z,3.73
2018-07-20T21:42:21.314Z,4.10
2018-07-20T21:44:48.752Z,4.23
2018-07-20T21:47:16.151Z,4.10
2018-07-20T21:49:43.850Z,4.57
2018-07-20T21:52:11.415Z,3.70
2018-07-20T21:54:38.688Z,4.60
2018-07-20T21:57:06.011Z,4.80
2018-07-20T21:59:33.247Z,4.30
2018-07-20T22:02:00.582Z,4.03
2018-07-20T22:04:27.837Z,4.40
2018-07-20T22:06:55.164Z,4.60
2018-07-20T22:09:22.520Z,4.47
2018-07-20T22:11:49.850Z,4.57
2018-07-20T22:14:17.271Z,4.50
2018-07-20T22:16:45.199Z,3.63
2018-07-20T22:19:12.588Z,4.10
2018-07-20T22:21:39.994Z,4.03
2018-07-20T22:24:07.359Z,4.10
2018-07-20T22:26:34.611Z,4.77
2018-07-20T22:29:01.881Z,3.83
2018-07-20T22:31:29.127Z,4.33
2018-07-20T22:33:56.414Z,4.20
2018-07-20T22:36:24.593Z,4.50
2018-07-20T22:38:51.840Z,4.00
2018-07-20T22:41:19.098Z,4.50
2018-07-20T22:43:46.743Z,4.07
2018-07-20T22:46:13.988Z,4.70
2018-07-20T22:48:41.262Z,4.07
2018-07-20T22:51:08.503Z,3.87
2018-07-20T22:53:35.760Z,4.63
2018-07-20T22:56:03.014Z,4.23
2018-07-20T22:58:30.272Z,4.50
2018-07-20T23:00:57.560Z,3.90
2018-07-20T23:03:24.791Z,4.47
2018-07-20T23:05:52.046Z,3.87
2018-07-20T23:08:20.301Z,4.43
2018-07-20T23:10:48.165Z,4.03
2018-07-20T23:13:15.511Z,4.07
2018-07-20T23:15:43.011Z,3.87
2018-07-20T23:18:10.419Z,4.00
2018-07-20T23:20:38.241Z,4.47
2018-07-20T23:23:05.550Z,4.47
2018-07-20T23:25:32.971Z,3.97
2018-07-20T23:28:00.540Z,4.77
2018-07-20T23:30:27.875Z,5.47
2018-07-20T23:32:55.207Z,5.43
2018-07-20T23:35:22.515Z,4.30
2018-07-20T23:37:49.763Z,4.70
2018-07-20T23:40:17.120Z,4.57
2018-07-20T23:42:44.339Z,4.67
2018-07-20T23:45:11.618Z,4.53
2018-07-20T23:47:38.851Z,4.47
2018-07-20T23:50:06.138Z,4.73
2018-07-20T23:52:33.385Z,4.70
2018-07-20T23:55:00.662Z,5.40
2018-07-20T23:57:27.925Z,4.53
2018-07-20T23:59:55.217Z,4.63
